KBLF/BLF METAR and TAF weather

Enter ICAO airport designator
Station Type Date Time Source
KBLF METAR 2019/08/24 09:39 UTC NOAA

KBLF 240939Z AUTO VRB03KT 2 1/2SM BR OVC002 15/14 A3017 RMK AO2 RAE07 P0000 T01500139


Station Type Date Time Source
KBLF Decoded METAR 2019/08/24 09:39 UTC NOAA

Station name not available
Aug 24, 2019 - 05:39 AM EDT / 2019.08.24 0939 UTC
Wind: Variable at 3 MPH (3 KT):0
Visibility: 2 1/2 mile(s):0
Sky conditions: overcast
Weather: mist
Precipitation last hour: A trace
Temperature: 59.0 F (15.0 C)
Dew Point: 57.0 F (13.9 C)
Relative Humidity: 93%
Pressure (altimeter): 30.17 in. Hg (1021 hPa)
ob: KBLF 240939Z AUTO VRB03KT 2 1/2SM BR OVC002 15/14 A3017 RMK AO2 RAE07 P0000 T01500139
cycle: 9

Station Type Date Time Source
KBLF TAF 2019/08/24 10:33 UTC NOAA

TAF
AMD KBLF 240931Z 2410/2506 VRB03KT 4SM BR OVC006
TEMPO 2410/2412 3SM -RA BR OVC002
FM241200 10003KT P6SM OVC025
FM241900 12005KT P6SM SCT030

Example: see airport list